sensor_id;sensor_type;location;lat;lon;timestamp;P1;durP1;ratioP1;P2;durP2;ratioP2
15228;SDS011;7717;47.792;12.076;2023-05-07T00:00:50;8.17;;;6.40;;
15228;SDS011;7717;47.792;12.076;2023-05-07T00:03:16;6.87;;;6.07;;
15228;SDS011;7717;47.792;12.076;2023-05-07T00:05:41;12.27;;;7.00;;
15228;SDS011;7717;47.792;12.076;2023-05-07T00:08:07;6.55;;;5.55;;
15228;SDS011;7717;47.792;12.076;2023-05-07T00:10:32;11.80;;;6.23;;
15228;SDS011;7717;47.792;12.076;2023-05-07T00:12:57;10.50;;;6.90;;
15228;SDS011;7717;47.792;12.076;2023-05-07T00:15:23;6.83;;;6.23;;
15228;SDS011;7717;47.792;12.076;2023-05-07T00:17:48;7.20;;;6.23;;
15228;SDS011;7717;47.792;12.076;2023-05-07T00:20:13;6.70;;;5.97;;
15228;SDS011;7717;47.792;12.076;2023-05-07T00:22:38;6.00;;;5.50;;
15228;SDS011;7717;47.792;12.076;2023-05-07T00:25:04;7.20;;;5.70;;
15228;SDS011;7717;47.792;12.076;2023-05-07T00:27:30;5.70;;;5.20;;
15228;SDS011;7717;47.792;12.076;2023-05-07T00:29:55;7.63;;;5.70;;
15228;SDS011;7717;47.792;12.076;2023-05-07T00:32:20;7.33;;;5.27;;
15228;SDS011;7717;47.792;12.076;2023-05-07T00:34:45;6.20;;;5.60;;
15228;SDS011;7717;47.792;12.076;2023-05-07T00:37:10;6.03;;;5.43;;
15228;SDS011;7717;47.792;12.076;2023-05-07T00:39:36;7.17;;;5.33;;
15228;SDS011;7717;47.792;12.076;2023-05-07T00:42:02;6.97;;;5.40;;
15228;SDS011;7717;47.792;12.076;2023-05-07T00:44:27;7.40;;;5.70;;
15228;SDS011;7717;47.792;12.076;2023-05-07T00:46:53;6.90;;;6.17;;
15228;SDS011;7717;47.792;12.076;2023-05-07T00:49:18;6.53;;;5.77;;
15228;SDS011;7717;47.792;12.076;2023-05-07T00:51:44;7.10;;;6.47;;
15228;SDS011;7717;47.792;12.076;2023-05-07T00:54:10;6.37;;;5.73;;
15228;SDS011;7717;47.792;12.076;2023-05-07T00:56:36;7.10;;;6.40;;
15228;SDS011;7717;47.792;12.076;2023-05-07T00:59:01;10.07;;;6.33;;
15228;SDS011;7717;47.792;12.076;2023-05-07T01:01:27;6.30;;;5.70;;
15228;SDS011;7717;47.792;12.076;2023-05-07T01:03:53;6.57;;;5.97;;
15228;SDS011;7717;47.792;12.076;2023-05-07T01:06:18;6.63;;;5.90;;
15228;SDS011;7717;47.792;12.076;2023-05-07T01:08:44;7.47;;;5.60;;
15228;SDS011;7717;47.792;12.076;2023-05-07T01:11:09;7.50;;;5.20;;
15228;SDS011;7717;47.792;12.076;2023-05-07T01:13:35;6.20;;;5.60;;
15228;SDS011;7717;47.792;12.076;2023-05-07T01:16:02;7.00;;;6.00;;
15228;SDS011;7717;47.792;12.076;2023-05-07T01:18:27;6.80;;;6.07;;
15228;SDS011;7717;47.792;12.076;2023-05-07T01:20:55;6.13;;;5.63;;
15228;SDS011;7717;47.792;12.076;2023-05-07T01:23:20;6.43;;;5.93;;
15228;SDS011;7717;47.792;12.076;2023-05-07T01:25:54;5.20;;;4.77;;
15228;SDS011;7717;47.792;12.076;2023-05-07T01:28:20;6.97;;;6.37;;
15228;SDS011;7717;47.792;12.076;2023-05-07T01:30:51;9.50;;;8.60;;
15228;SDS011;7717;47.792;12.076;2023-05-07T01:33:18;5.90;;;5.40;;
15228;SDS011;7717;47.792;12.076;2023-05-07T01:35:45;7.43;;;6.03;;
15228;SDS011;7717;47.792;12.076;2023-05-07T01:38:11;7.07;;;6.47;;
15228;SDS011;7717;47.792;12.076;2023-05-07T01:40:37;6.83;;;6.23;;
15228;SDS011;7717;47.792;12.076;2023-05-07T01:43:02;6.83;;;6.13;;
15228;SDS011;7717;47.792;12.076;2023-05-07T01:45:28;7.57;;;6.90;;
15228;SDS011;7717;47.792;12.076;2023-05-07T01:47:53;6.77;;;6.17;;
15228;SDS011;7717;47.792;12.076;2023-05-07T01:50:20;6.93;;;6.23;;
15228;SDS011;7717;47.792;12.076;2023-05-07T01:52:46;7.77;;;6.40;;
15228;SDS011;7717;47.792;12.076;2023-05-07T01:55:12;7.27;;;6.63;;
15228;SDS011;7717;47.792;12.076;2023-05-07T01:57:37;8.53;;;6.93;;
15228;SDS011;7717;47.792;12.076;2023-05-07T02:00:03;8.20;;;7.47;;
15228;SDS011;7717;47.792;12.076;2023-05-07T02:02:30;7.80;;;7.10;;
15228;SDS011;7717;47.792;12.076;2023-05-07T02:04:55;7.53;;;6.93;;
15228;SDS011;7717;47.792;12.076;2023-05-07T02:07:20;7.97;;;6.73;;
15228;SDS011;7717;47.792;12.076;2023-05-07T02:09:46;17.47;;;9.17;;
15228;SDS011;7717;47.792;12.076;2023-05-07T02:12:11;7.77;;;6.93;;
15228;SDS011;7717;47.792;12.076;2023-05-07T02:14:36;7.33;;;6.53;;
15228;SDS011;7717;47.792;12.076;2023-05-07T02:17:01;8.07;;;7.07;;
15228;SDS011;7717;47.792;12.076;2023-05-07T02:19:27;137.87;;;19.50;;
15228;SDS011;7717;47.792;12.076;2023-05-07T02:21:52;7.13;;;6.53;;
15228;SDS011;7717;47.792;12.076;2023-05-07T02:24:18;9.10;;;7.00;;
15228;SDS011;7717;47.792;12.076;2023-05-07T02:26:43;7.80;;;6.93;;
15228;SDS011;7717;47.792;12.076;2023-05-07T02:29:08;9.17;;;6.40;;
15228;SDS011;7717;47.792;12.076;2023-05-07T02:31:33;7.60;;;6.90;;
15228;SDS011;7717;47.792;12.076;2023-05-07T02:33:59;7.63;;;7.00;;
15228;SDS011;7717;47.792;12.076;2023-05-07T02:36:24;7.70;;;6.73;;
15228;SDS011;7717;47.792;12.076;2023-05-07T02:38:49;7.47;;;6.53;;
15228;SDS011;7717;47.792;12.076;2023-05-07T02:41:14;8.13;;;6.70;;
15228;SDS011;7717;47.792;12.076;2023-05-07T02:43:40;7.57;;;6.67;;
15228;SDS011;7717;47.792;12.076;2023-05-07T02:46:06;7.37;;;6.30;;
15228;SDS011;7717;47.792;12.076;2023-05-07T02:48:32;7.97;;;7.13;;
15228;SDS011;7717;47.792;12.076;2023-05-07T02:50:57;6.83;;;6.10;;
15228;SDS011;7717;47.792;12.076;2023-05-07T02:53:22;7.00;;;6.40;;
15228;SDS011;7717;47.792;12.076;2023-05-07T02:55:50;7.33;;;6.67;;
15228;SDS011;7717;47.792;12.076;2023-05-07T02:58:15;8.30;;;7.30;;
15228;SDS011;7717;47.792;12.076;2023-05-07T03:00:40;6.83;;;6.17;;
15228;SDS011;7717;47.792;12.076;2023-05-07T03:03:06;7.37;;;6.67;;
15228;SDS011;7717;47.792;12.076;2023-05-07T03:05:31;7.87;;;7.17;;
15228;SDS011;7717;47.792;12.076;2023-05-07T03:07:56;7.70;;;6.83;;
15228;SDS011;7717;47.792;12.076;2023-05-07T03:10:21;9.03;;;7.23;;
15228;SDS011;7717;47.792;12.076;2023-05-07T03:12:47;9.00;;;7.50;;
15228;SDS011;7717;47.792;12.076;2023-05-07T03:15:12;8.77;;;7.63;;
15228;SDS011;7717;47.792;12.076;2023-05-07T03:17:37;7.37;;;6.67;;
15228;SDS011;7717;47.792;12.076;2023-05-07T03:20:03;7.70;;;6.90;;
15228;SDS011;7717;47.792;12.076;2023-05-07T03:22:28;7.40;;;6.80;;
15228;SDS011;7717;47.792;12.076;2023-05-07T03:24:53;8.83;;;7.40;;
15228;SDS011;7717;47.792;12.076;2023-05-07T03:27:19;8.30;;;7.60;;
15228;SDS011;7717;47.792;12.076;2023-05-07T03:29:44;7.30;;;6.37;;
15228;SDS011;7717;47.792;12.076;2023-05-07T03:32:09;7.70;;;6.67;;
15228;SDS011;7717;47.792;12.076;2023-05-07T03:34:34;7.20;;;6.27;;
15228;SDS011;7717;47.792;12.076;2023-05-07T03:37:00;7.03;;;5.97;;
15228;SDS011;7717;47.792;12.076;2023-05-07T03:39:25;6.73;;;6.23;;
15228;SDS011;7717;47.792;12.076;2023-05-07T03:41:50;8.53;;;7.47;;
15228;SDS011;7717;47.792;12.076;2023-05-07T03:44:15;7.50;;;6.77;;
15228;SDS011;7717;47.792;12.076;2023-05-07T03:46:41;7.37;;;6.60;;
15228;SDS011;7717;47.792;12.076;2023-05-07T03:49:06;7.40;;;6.80;;
15228;SDS011;7717;47.792;12.076;2023-05-07T03:51:31;7.27;;;6.57;;
15228;SDS011;7717;47.792;12.076;2023-05-07T03:53:56;9.43;;;8.50;;
15228;SDS011;7717;47.792;12.076;2023-05-07T03:56:22;8.10;;;7.07;;
15228;SDS011;7717;47.792;12.076;2023-05-07T03:58:47;7.83;;;7.03;;
15228;SDS011;7717;47.792;12.076;2023-05-07T04:01:13;8.97;;;7.30;;
15228;SDS011;7717;47.792;12.076;2023-05-07T04:03:38;7.90;;;7.10;;
15228;SDS011;7717;47.792;12.076;2023-05-07T04:06:03;10.63;;;7.23;;
15228;SDS011;7717;47.792;12.076;2023-05-07T04:08:28;8.40;;;7.60;;
15228;SDS011;7717;47.792;12.076;2023-05-07T04:10:54;7.57;;;6.87;;
15228;SDS011;7717;47.792;12.076;2023-05-07T04:13:20;7.47;;;6.77;;
15228;SDS011;7717;47.792;12.076;2023-05-07T04:15:45;8.23;;;7.43;;
15228;SDS011;7717;47.792;12.076;2023-05-07T04:18:11;8.70;;;7.90;;
15228;SDS011;7717;47.792;12.076;2023-05-07T04:20:36;7.60;;;6.90;;
15228;SDS011;7717;47.792;12.076;2023-05-07T04:23:01;7.73;;;7.03;;
15228;SDS011;7717;47.792;12.076;2023-05-07T04:25:27;7.80;;;7.10;;
15228;SDS011;7717;47.792;12.076;2023-05-07T04:27:52;7.30;;;6.70;;
15228;SDS011;7717;47.792;12.076;2023-05-07T04:30:17;6.03;;;5.53;;
15228;SDS011;7717;47.792;12.076;2023-05-07T04:32:43;7.70;;;6.33;;
15228;SDS011;7717;47.792;12.076;2023-05-07T04:35:09;6.47;;;5.97;;
15228;SDS011;7717;47.792;12.076;2023-05-07T04:37:34;6.87;;;6.27;;
15228;SDS011;7717;47.792;12.076;2023-05-07T04:40:00;6.90;;;6.30;;
15228;SDS011;7717;47.792;12.076;2023-05-07T04:42:25;7.03;;;6.33;;
15228;SDS011;7717;47.792;12.076;2023-05-07T04:44:52;7.00;;;6.30;;
15228;SDS011;7717;47.792;12.076;2023-05-07T04:47:17;7.87;;;7.17;;
15228;SDS011;7717;47.792;12.076;2023-05-07T04:49:42;7.10;;;6.50;;
15228;SDS011;7717;47.792;12.076;2023-05-07T04:52:07;7.40;;;6.50;;
15228;SDS011;7717;47.792;12.076;2023-05-07T04:54:33;6.77;;;6.23;;
15228;SDS011;7717;47.792;12.076;2023-05-07T04:56:58;7.03;;;6.43;;
15228;SDS011;7717;47.792;12.076;2023-05-07T04:59:23;7.60;;;6.90;;
15228;SDS011;7717;47.792;12.076;2023-05-07T05:01:48;6.93;;;6.23;;
15228;SDS011;7717;47.792;12.076;2023-05-07T05:04:13;6.97;;;6.33;;
15228;SDS011;7717;47.792;12.076;2023-05-07T05:06:39;7.97;;;7.17;;
15228;SDS011;7717;47.792;12.076;2023-05-07T05:09:04;7.60;;;6.77;;
15228;SDS011;7717;47.792;12.076;2023-05-07T05:11:30;7.67;;;6.57;;
15228;SDS011;7717;47.792;12.076;2023-05-07T05:13:55;7.07;;;6.37;;
15228;SDS011;7717;47.792;12.076;2023-05-07T05:16:20;7.63;;;6.93;;
15228;SDS011;7717;47.792;12.076;2023-05-07T05:18:45;8.00;;;7.30;;
15228;SDS011;7717;47.792;12.076;2023-05-07T05:21:11;7.50;;;6.87;;
15228;SDS011;7717;47.792;12.076;2023-05-07T05:23:36;9.73;;;7.50;;
15228;SDS011;7717;47.792;12.076;2023-05-07T05:26:01;8.23;;;7.40;;
15228;SDS011;7717;47.792;12.076;2023-05-07T05:28:26;7.27;;;6.57;;
15228;SDS011;7717;47.792;12.076;2023-05-07T05:30:52;7.73;;;6.87;;
15228;SDS011;7717;47.792;12.076;2023-05-07T05:33:18;7.40;;;6.60;;
15228;SDS011;7717;47.792;12.076;2023-05-07T05:35:43;9.10;;;7.90;;
15228;SDS011;7717;47.792;12.076;2023-05-07T05:38:08;8.30;;;7.27;;
15228;SDS011;7717;47.792;12.076;2023-05-07T05:40:33;7.70;;;6.90;;
15228;SDS011;7717;47.792;12.076;2023-05-07T05:42:59;7.27;;;6.67;;
15228;SDS011;7717;47.792;12.076;2023-05-07T05:45:24;7.70;;;6.90;;
15228;SDS011;7717;47.792;12.076;2023-05-07T05:47:50;8.40;;;6.60;;
15228;SDS011;7717;47.792;12.076;2023-05-07T05:50:15;7.97;;;7.27;;
15228;SDS011;7717;47.792;12.076;2023-05-07T05:52:40;5.63;;;5.10;;
15228;SDS011;7717;47.792;12.076;2023-05-07T05:55:06;6.77;;;5.93;;
15228;SDS011;7717;47.792;12.076;2023-05-07T05:57:31;6.63;;;5.57;;
15228;SDS011;7717;47.792;12.076;2023-05-07T05:59:56;6.10;;;5.47;;
15228;SDS011;7717;47.792;12.076;2023-05-07T06:02:21;6.20;;;5.60;;
15228;SDS011;7717;47.792;12.076;2023-05-07T06:04:47;6.30;;;5.20;;
15228;SDS011;7717;47.792;12.076;2023-05-07T06:07:12;5.03;;;4.57;;
15228;SDS011;7717;47.792;12.076;2023-05-07T06:09:37;5.00;;;4.60;;
15228;SDS011;7717;47.792;12.076;2023-05-07T06:12:02;5.90;;;4.53;;
15228;SDS011;7717;47.792;12.076;2023-05-07T06:14:28;4.83;;;4.40;;
15228;SDS011;7717;47.792;12.076;2023-05-07T06:16:53;4.13;;;3.73;;
15228;SDS011;7717;47.792;12.076;2023-05-07T06:19:18;5.47;;;4.30;;
15228;SDS011;7717;47.792;12.076;2023-05-07T06:21:48;3.67;;;3.37;;
15228;SDS011;7717;47.792;12.076;2023-05-07T06:24:13;3.70;;;3.40;;
15228;SDS011;7717;47.792;12.076;2023-05-07T06:26:38;3.40;;;3.20;;
15228;SDS011;7717;47.792;12.076;2023-05-07T06:29:03;5.57;;;3.20;;
15228;SDS011;7717;47.792;12.076;2023-05-07T06:31:29;5.07;;;2.80;;
15228;SDS011;7717;47.792;12.076;2023-05-07T06:33:56;5.83;;;3.77;;
15228;SDS011;7717;47.792;12.076;2023-05-07T06:36:21;2.83;;;2.53;;
15228;SDS011;7717;47.792;12.076;2023-05-07T06:38:46;2.83;;;2.63;;
15228;SDS011;7717;47.792;12.076;2023-05-07T06:41:11;5.17;;;2.67;;
15228;SDS011;7717;47.792;12.076;2023-05-07T06:43:37;2.80;;;2.60;;
15228;SDS011;7717;47.792;12.076;2023-05-07T06:46:02;4.77;;;2.70;;
15228;SDS011;7717;47.792;12.076;2023-05-07T06:48:27;2.90;;;2.70;;
15228;SDS011;7717;47.792;12.076;2023-05-07T06:50:52;2.40;;;2.17;;
15228;SDS011;7717;47.792;12.076;2023-05-07T06:53:20;2.30;;;2.13;;
15228;SDS011;7717;47.792;12.076;2023-05-07T06:55:45;2.60;;;2.40;;
15228;SDS011;7717;47.792;12.076;2023-05-07T06:58:10;2.73;;;2.30;;
15228;SDS011;7717;47.792;12.076;2023-05-07T07:00:35;2.80;;;2.60;;
15228;SDS011;7717;47.792;12.076;2023-05-07T07:03:01;5.40;;;2.90;;
15228;SDS011;7717;47.792;12.076;2023-05-07T07:05:26;4.63;;;2.47;;
15228;SDS011;7717;47.792;12.076;2023-05-07T07:07:51;3.97;;;2.40;;
15228;SDS011;7717;47.792;12.076;2023-05-07T07:10:20;2.57;;;2.37;;
15228;SDS011;7717;47.792;12.076;2023-05-07T07:12:45;3.87;;;2.37;;
15228;SDS011;7717;47.792;12.076;2023-05-07T07:15:10;2.43;;;2.23;;
15228;SDS011;7717;47.792;12.076;2023-05-07T07:17:36;2.40;;;2.20;;
15228;SDS011;7717;47.792;12.076;2023-05-07T07:20:01;4.90;;;2.33;;
15228;SDS011;7717;47.792;12.076;2023-05-07T07:22:26;3.77;;;2.00;;
15228;SDS011;7717;47.792;12.076;2023-05-07T07:24:51;4.70;;;2.57;;
15228;SDS011;7717;47.792;12.076;2023-05-07T07:27:16;2.35;;;2.20;;
15228;SDS011;7717;47.792;12.076;2023-05-07T07:29:42;2.93;;;2.20;;
15228;SDS011;7717;47.792;12.076;2023-05-07T07:32:07;2.10;;;2.00;;
15228;SDS011;7717;47.792;12.076;2023-05-07T07:34:33;2.35;;;2.20;;
15228;SDS011;7717;47.792;12.076;2023-05-07T07:36:58;2.40;;;2.20;;
15228;SDS011;7717;47.792;12.076;2023-05-07T07:39:23;3.50;;;2.00;;
15228;SDS011;7717;47.792;12.076;2023-05-07T07:41:48;3.40;;;2.00;;
15228;SDS011;7717;47.792;12.076;2023-05-07T07:44:14;1.80;;;1.70;;
15228;SDS011;7717;47.792;12.076;2023-05-07T07:46:39;1.70;;;1.60;;
15228;SDS011;7717;47.792;12.076;2023-05-07T07:49:04;2.30;;;1.50;;
15228;SDS011;7717;47.792;12.076;2023-05-07T07:51:30;1.60;;;1.50;;
15228;SDS011;7717;47.792;12.076;2023-05-07T07:53:55;2.57;;;1.70;;
15228;SDS011;7717;47.792;12.076;2023-05-07T07:56:22;1.53;;;1.43;;
15228;SDS011;7717;47.792;12.076;2023-05-07T07:58:48;2.33;;;1.80;;
15228;SDS011;7717;47.792;12.076;2023-05-07T08:01:13;2.13;;;2.00;;
15228;SDS011;7717;47.792;12.076;2023-05-07T08:03:38;4.00;;;2.50;;
15228;SDS011;7717;47.792;12.076;2023-05-07T08:06:03;3.93;;;2.07;;
15228;SDS011;7717;47.792;12.076;2023-05-07T08:08:28;5.03;;;2.33;;
15228;SDS011;7717;47.792;12.076;2023-05-07T08:10:54;2.07;;;1.97;;
15228;SDS011;7717;47.792;12.076;2023-05-07T08:13:19;2.23;;;2.00;;
15228;SDS011;7717;47.792;12.076;2023-05-07T08:15:44;2.47;;;2.22;;
15228;SDS011;7717;47.792;12.076;2023-05-07T08:18:10;2.60;;;2.40;;
15228;SDS011;7717;47.792;12.076;2023-05-07T08:20:35;2.63;;;2.40;;
15228;SDS011;7717;47.792;12.076;2023-05-07T08:23:04;2.73;;;2.53;;
15228;SDS011;7717;47.792;12.076;2023-05-07T08:25:29;2.90;;;2.70;;
15228;SDS011;7717;47.792;12.076;2023-05-07T08:27:55;3.45;;;2.60;;
15228;SDS011;7717;47.792;12.076;2023-05-07T08:30:20;3.15;;;2.95;;
15228;SDS011;7717;47.792;12.076;2023-05-07T08:32:45;2.92;;;2.65;;
15228;SDS011;7717;47.792;12.076;2023-05-07T08:35:11;3.22;;;2.28;;
15228;SDS011;7717;47.792;12.076;2023-05-07T08:37:36;3.10;;;2.80;;
15228;SDS011;7717;47.792;12.076;2023-05-07T08:40:01;3.13;;;2.80;;
15228;SDS011;7717;47.792;12.076;2023-05-07T08:42:27;2.45;;;2.28;;
15228;SDS011;7717;47.792;12.076;2023-05-07T08:44:53;2.65;;;2.45;;
15228;SDS011;7717;47.792;12.076;2023-05-07T08:47:22;5.03;;;3.67;;
15228;SDS011;7717;47.792;12.076;2023-05-07T08:49:49;3.10;;;2.90;;
15228;SDS011;7717;47.792;12.076;2023-05-07T08:52:15;3.30;;;3.10;;
15228;SDS011;7717;47.792;12.076;2023-05-07T08:54:40;3.85;;;3.33;;
15228;SDS011;7717;47.792;12.076;2023-05-07T08:57:06;3.70;;;2.75;;
15228;SDS011;7717;47.792;12.076;2023-05-07T08:59:31;2.38;;;2.25;;
15228;SDS011;7717;47.792;12.076;2023-05-07T09:01:57;4.43;;;3.50;;
15228;SDS011;7717;47.792;12.076;2023-05-07T09:04:22;3.55;;;3.25;;
15228;SDS011;7717;47.792;12.076;2023-05-07T09:06:47;3.07;;;2.83;;
15228;SDS011;7717;47.792;12.076;2023-05-07T09:09:16;3.30;;;3.00;;
15228;SDS011;7717;47.792;12.076;2023-05-07T09:11:43;3.47;;;3.07;;
15228;SDS011;7717;47.792;12.076;2023-05-07T09:14:09;3.65;;;3.25;;
15228;SDS011;7717;47.792;12.076;2023-05-07T09:16:34;4.47;;;3.60;;
15228;SDS011;7717;47.792;12.076;2023-05-07T09:18:59;3.87;;;3.57;;
15228;SDS011;7717;47.792;12.076;2023-05-07T09:21:27;2.72;;;2.33;;
15228;SDS011;7717;47.792;12.076;2023-05-07T09:23:53;3.45;;;2.13;;
15228;SDS011;7717;47.792;12.076;2023-05-07T09:26:21;4.25;;;1.73;;
15228;SDS011;7717;47.792;12.076;2023-05-07T09:28:46;2.15;;;1.95;;
15228;SDS011;7717;47.792;12.076;2023-05-07T09:31:11;2.58;;;2.10;;
15228;SDS011;7717;47.792;12.076;2023-05-07T09:33:37;3.45;;;2.15;;
15228;SDS011;7717;47.792;12.076;2023-05-07T09:36:05;2.90;;;2.20;;
15228;SDS011;7717;47.792;12.076;2023-05-07T09:38:31;2.00;;;1.73;;
15228;SDS011;7717;47.792;12.076;2023-05-07T09:43:31;2.40;;;2.15;;
15228;SDS011;7717;47.792;12.076;2023-05-07T09:45:57;2.27;;;2.00;;
15228;SDS011;7717;47.792;12.076;2023-05-07T09:48:23;2.42;;;2.20;;
15228;SDS011;7717;47.792;12.076;2023-05-07T09:50:49;2.03;;;1.83;;
15228;SDS011;7717;47.792;12.076;2023-05-07T09:53:15;1.60;;;1.50;;
15228;SDS011;7717;47.792;12.076;2023-05-07T09:55:42;1.52;;;1.23;;
15228;SDS011;7717;47.792;12.076;2023-05-07T09:58:07;2.95;;;1.60;;
15228;SDS011;7717;47.792;12.076;2023-05-07T10:00:32;2.15;;;1.95;;
15228;SDS011;7717;47.792;12.076;2023-05-07T10:02:58;2.58;;;1.52;;
15228;SDS011;7717;47.792;12.076;2023-05-07T10:05:24;1.70;;;1.60;;
15228;SDS011;7717;47.792;12.076;2023-05-07T10:07:50;1.65;;;1.30;;
15228;SDS011;7717;47.792;12.076;2023-05-07T10:10:15;1.45;;;1.40;;
15228;SDS011;7717;47.792;12.076;2023-05-07T10:12:41;2.75;;;1.65;;
15228;SDS011;7717;47.792;12.076;2023-05-07T10:15:07;2.03;;;1.35;;
15228;SDS011;7717;47.792;12.076;2023-05-07T10:17:36;1.70;;;1.60;;
15228;SDS011;7717;47.792;12.076;2023-05-07T10:20:02;1.60;;;1.50;;
15228;SDS011;7717;47.792;12.076;2023-05-07T10:22:28;2.42;;;1.40;;
15228;SDS011;7717;47.792;12.076;2023-05-07T10:24:53;1.77;;;1.38;;
15228;SDS011;7717;47.792;12.076;2023-05-07T10:27:20;3.58;;;1.92;;
15228;SDS011;7717;47.792;12.076;2023-05-07T10:35:02;2.00;;;1.90;;
15228;SDS011;7717;47.792;12.076;2023-05-07T10:37:28;2.50;;;2.30;;
15228;SDS011;7717;47.792;12.076;2023-05-07T10:39:53;3.72;;;1.70;;
15228;SDS011;7717;47.792;12.076;2023-05-07T10:42:19;3.42;;;1.60;;
15228;SDS011;7717;47.792;12.076;2023-05-07T10:44:44;3.23;;;1.30;;
15228;SDS011;7717;47.792;12.076;2023-05-07T10:47:10;1.70;;;1.60;;
15228;SDS011;7717;47.792;12.076;2023-05-07T10:50:21;1.52;;;1.30;;
15228;SDS011;7717;47.792;12.076;2023-05-07T10:52:22;1.63;;;1.52;;
15228;SDS011;7717;47.792;12.076;2023-05-07T10:55:40;1.80;;;1.70;;
15228;SDS011;7717;47.792;12.076;2023-05-07T10:57:43;2.17;;;1.35;;
15228;SDS011;7717;47.792;12.076;2023-05-07T11:05:23;2.15;;;1.70;;
15228;SDS011;7717;47.792;12.076;2023-05-07T11:07:55;3.00;;;1.60;;
15228;SDS011;7717;47.792;12.076;2023-05-07T11:10:21;1.58;;;1.10;;
15228;SDS011;7717;47.792;12.076;2023-05-07T11:12:50;1.40;;;1.08;;
15228;SDS011;7717;47.792;12.076;2023-05-07T11:15:16;1.42;;;1.33;;
15228;SDS011;7717;47.792;12.076;2023-05-07T11:17:58;1.20;;;1.10;;
15228;SDS011;7717;47.792;12.076;2023-05-07T11:23:12;2.13;;;1.20;;
15228;SDS011;7717;47.792;12.076;2023-05-07T11:25:57;2.35;;;1.30;;
15228;SDS011;7717;47.792;12.076;2023-05-07T11:28:23;1.52;;;1.42;;
15228;SDS011;7717;47.792;12.076;2023-05-07T11:30:48;1.40;;;1.30;;
15228;SDS011;7717;47.792;12.076;2023-05-07T11:33:16;1.40;;;1.30;;
15228;SDS011;7717;47.792;12.076;2023-05-07T11:35:42;3.33;;;1.50;;
15228;SDS011;7717;47.792;12.076;2023-05-07T11:38:07;1.42;;;1.30;;
15228;SDS011;7717;47.792;12.076;2023-05-07T11:40:33;2.10;;;1.50;;
15228;SDS011;7717;47.792;12.076;2023-05-07T11:42:58;1.30;;;1.20;;
15228;SDS011;7717;47.792;12.076;2023-05-07T11:45:23;2.40;;;1.23;;
15228;SDS011;7717;47.792;12.076;2023-05-07T11:47:50;1.50;;;1.40;;
15228;SDS011;7717;47.792;12.076;2023-05-07T11:50:15;1.50;;;1.20;;
15228;SDS011;7717;47.792;12.076;2023-05-07T11:52:49;1.42;;;1.33;;
15228;SDS011;7717;47.792;12.076;2023-05-07T11:55:17;1.58;;;1.35;;
15228;SDS011;7717;47.792;12.076;2023-05-07T11:57:43;1.55;;;1.38;;
15228;SDS011;7717;47.792;12.076;2023-05-07T12:00:08;2.30;;;1.38;;
15228;SDS011;7717;47.792;12.076;2023-05-07T12:02:34;2.70;;;1.60;;
15228;SDS011;7717;47.792;12.076;2023-05-07T12:05:00;1.40;;;1.30;;
15228;SDS011;7717;47.792;12.076;2023-05-07T12:07:25;1.20;;;1.10;;
15228;SDS011;7717;47.792;12.076;2023-05-07T12:09:50;2.00;;;1.20;;
15228;SDS011;7717;47.792;12.076;2023-05-07T12:14:42;1.85;;;1.20;;
15228;SDS011;7717;47.792;12.076;2023-05-07T12:17:08;2.40;;;1.45;;
15228;SDS011;7717;47.792;12.076;2023-05-07T12:21:59;1.30;;;1.20;;
15228;SDS011;7717;47.792;12.076;2023-05-07T12:24:24;1.38;;;1.30;;
15228;SDS011;7717;47.792;12.076;2023-05-07T12:34:05;1.40;;;1.30;;
15228;SDS011;7717;47.792;12.076;2023-05-07T12:38:56;1.40;;;1.30;;
15228;SDS011;7717;47.792;12.076;2023-05-07T12:41:21;2.45;;;1.40;;
15228;SDS011;7717;47.792;12.076;2023-05-07T12:43:50;2.25;;;1.65;;
15228;SDS011;7717;47.792;12.076;2023-05-07T12:46:21;1.33;;;1.23;;
15228;SDS011;7717;47.792;12.076;2023-05-07T13:10:39;1.75;;;1.55;;
15228;SDS011;7717;47.792;12.076;2023-05-07T13:13:04;1.60;;;1.50;;
15228;SDS011;7717;47.792;12.076;2023-05-07T13:25:10;2.35;;;2.15;;
15228;SDS011;7717;47.792;12.076;2023-05-07T13:30:02;1.60;;;1.50;;
15228;SDS011;7717;47.792;12.076;2023-05-07T13:32:27;1.77;;;1.67;;
15228;SDS011;7717;47.792;12.076;2023-05-07T13:34:52;3.20;;;2.05;;
15228;SDS011;7717;47.792;12.076;2023-05-07T13:37:18;1.80;;;1.70;;
15228;SDS011;7717;47.792;12.076;2023-05-07T13:42:09;1.67;;;1.58;;
15228;SDS011;7717;47.792;12.076;2023-05-07T13:44:34;1.92;;;1.60;;
15228;SDS011;7717;47.792;12.076;2023-05-07T13:47:00;2.00;;;1.80;;
15228;SDS011;7717;47.792;12.076;2023-05-07T13:49:25;1.88;;;1.77;;
15228;SDS011;7717;47.792;12.076;2023-05-07T13:51:50;2.13;;;1.92;;
15228;SDS011;7717;47.792;12.076;2023-05-07T13:54:15;2.17;;;1.90;;
15228;SDS011;7717;47.792;12.076;2023-05-07T13:56:41;2.10;;;1.70;;
15228;SDS011;7717;47.792;12.076;2023-05-07T13:59:06;2.75;;;1.50;;
15228;SDS011;7717;47.792;12.076;2023-05-07T14:01:31;4.00;;;1.90;;
15228;SDS011;7717;47.792;12.076;2023-05-07T14:03:57;1.90;;;1.60;;
15228;SDS011;7717;47.792;12.076;2023-05-07T14:06:23;2.05;;;1.70;;
15228;SDS011;7717;47.792;12.076;2023-05-07T14:08:48;5.00;;;1.90;;
15228;SDS011;7717;47.792;12.076;2023-05-07T14:11:13;2.27;;;1.53;;
15228;SDS011;7717;47.792;12.076;2023-05-07T14:13:38;1.77;;;1.67;;
15228;SDS011;7717;47.792;12.076;2023-05-07T14:16:04;1.60;;;1.50;;
15228;SDS011;7717;47.792;12.076;2023-05-07T14:18:29;2.25;;;1.70;;
15228;SDS011;7717;47.792;12.076;2023-05-07T14:20:54;1.73;;;1.63;;
15228;SDS011;7717;47.792;12.076;2023-05-07T14:23:19;1.90;;;1.73;;
15228;SDS011;7717;47.792;12.076;2023-05-07T14:25:47;2.17;;;1.83;;
15228;SDS011;7717;47.792;12.076;2023-05-07T14:28:12;2.63;;;2.05;;
15228;SDS011;7717;47.792;12.076;2023-05-07T14:30:37;2.63;;;2.13;;
15228;SDS011;7717;47.792;12.076;2023-05-07T14:33:03;2.22;;;2.10;;
15228;SDS011;7717;47.792;12.076;2023-05-07T14:35:29;2.20;;;2.00;;
15228;SDS011;7717;47.792;12.076;2023-05-07T14:37:54;1.90;;;1.80;;
15228;SDS011;7717;47.792;12.076;2023-05-07T14:40:20;2.50;;;2.30;;
15228;SDS011;7717;47.792;12.076;2023-05-07T14:42:45;2.38;;;2.17;;
15228;SDS011;7717;47.792;12.076;2023-05-07T14:45:10;3.30;;;1.97;;
15228;SDS011;7717;47.792;12.076;2023-05-07T14:47:36;2.15;;;2.00;;
15228;SDS011;7717;47.792;12.076;2023-05-07T14:50:01;2.10;;;2.00;;
15228;SDS011;7717;47.792;12.076;2023-05-07T14:52:26;2.20;;;2.00;;
15228;SDS011;7717;47.792;12.076;2023-05-07T14:54:51;2.40;;;2.03;;
15228;SDS011;7717;47.792;12.076;2023-05-07T14:57:17;2.22;;;2.13;;
15228;SDS011;7717;47.792;12.076;2023-05-07T14:59:43;2.50;;;2.00;;
15228;SDS011;7717;47.792;12.076;2023-05-07T15:02:09;2.13;;;2.03;;
15228;SDS011;7717;47.792;12.076;2023-05-07T15:04:35;3.83;;;2.13;;
15228;SDS011;7717;47.792;12.076;2023-05-07T15:07:00;2.20;;;1.90;;
15228;SDS011;7717;47.792;12.076;2023-05-07T15:09:25;2.20;;;2.03;;
15228;SDS011;7717;47.792;12.076;2023-05-07T15:11:51;1.98;;;1.85;;
15228;SDS011;7717;47.792;12.076;2023-05-07T15:14:16;2.23;;;1.90;;
15228;SDS011;7717;47.792;12.076;2023-05-07T15:16:41;2.60;;;2.20;;
15228;SDS011;7717;47.792;12.076;2023-05-07T15:19:06;2.45;;;2.25;;
15228;SDS011;7717;47.792;12.076;2023-05-07T15:21:32;3.50;;;2.50;;
15228;SDS011;7717;47.792;12.076;2023-05-07T15:24:00;2.17;;;2.07;;
15228;SDS011;7717;47.792;12.076;2023-05-07T15:26:26;3.03;;;1.90;;
15228;SDS011;7717;47.792;12.076;2023-05-07T15:28:51;2.30;;;2.20;;
15228;SDS011;7717;47.792;12.076;2023-05-07T15:31:17;2.00;;;1.90;;
15228;SDS011;7717;47.792;12.076;2023-05-07T15:33:42;2.60;;;2.40;;
15228;SDS011;7717;47.792;12.076;2023-05-07T15:36:07;2.30;;;2.10;;
15228;SDS011;7717;47.792;12.076;2023-05-07T15:38:33;2.63;;;2.17;;
15228;SDS011;7717;47.792;12.076;2023-05-07T15:40:58;2.57;;;2.20;;
15228;SDS011;7717;47.792;12.076;2023-05-07T15:43:24;4.30;;;2.40;;
15228;SDS011;7717;47.792;12.076;2023-05-07T15:45:50;2.70;;;2.50;;